Flight Track Log - Related Links

Times and Time Zones

All times are in EDT time to prevent confusion due to time zone crossing. See the AFL150 flight status page for this flight to view local times or setup timezone preferences in your user account.

Time Position Orientation Groundspeed Altitude Reporting Facility
EDT Latitude Longitude Course Direction KTS MPH feet Rate Location/Type
Mon 05:23:00 AM 56.1451 37.0606 319° Northwest  Level FlightAware Approximate
Mon 05:24:00 AM 56.2321 36.9229 319° Northwest  Level FlightAware Approximate
Mon 05:25:00 AM 56.3190 36.7846 319° Northwest  Level FlightAware Approximate
Mon 05:26:00 AM 56.4057 36.6456 318° Northwest  Level FlightAware Approximate
Mon 05:27:00 AM 56.4923 36.5061 318° Northwest  Level FlightAware Approximate
Mon 05:28:00 AM 56.5787 36.3658 318° Northwest  Level FlightAware Approximate
Mon 05:29:00 AM 56.6650 36.2250 318° Northwest  Level FlightAware Approximate
Mon 05:30:00 AM 56.7511 36.0835 318° Northwest  Level FlightAware Approximate
Mon 05:31:00 AM 56.8370 35.9413 318° Northwest  Level FlightAware Approximate
Mon 05:32:00 AM 56.9228 35.7985 318° Northwest  Level FlightAware Approximate
Mon 05:33:00 AM 57.0084 35.6550 318° Northwest  Level FlightAware Approximate
Mon 05:34:00 AM 57.0939 35.5109 318° Northwest  Level FlightAware Approximate
Mon 05:35:00 AM 57.1791 35.3661 317° Northwest  Level FlightAware Approximate
Mon 05:36:00 AM 57.2643 35.2206 317° Northwest  Level FlightAware Approximate
Mon 05:37:00 AM 57.3492 35.0745 317° Northwest  Level FlightAware Approximate
Mon 05:38:00 AM 57.4340 34.9277 317° Northwest  Level FlightAware Approximate
Mon 05:39:00 AM 57.5186 34.7802 317° Northwest  Level FlightAware Approximate
Mon 05:40:00 AM 57.6048 34.6247 314° West  Level FlightAware Approximate
Mon 05:41:00 AM 57.6849 34.4680 314° West  Level FlightAware Approximate
Mon 05:42:00 AM 57.7648 34.3106 314° West  Level FlightAware Approximate
Mon 05:43:00 AM 57.8445 34.1525 313° West  Level FlightAware Approximate
Mon 05:44:00 AM 57.9240 33.9937 313° West  Level FlightAware Approximate
Mon 05:45:00 AM 58.0033 33.8342 313° West  Level FlightAware Approximate
Mon 05:46:00 AM 58.0824 33.6740 313° West  Level FlightAware Approximate
Mon 05:47:00 AM 58.1613 33.5131 313° West  Level FlightAware Approximate
Mon 05:48:00 AM 58.2399 33.3514 313° West  Level FlightAware Approximate
Mon 05:49:00 AM 58.3184 33.1890 313° West  Level FlightAware Approximate
Mon 05:50:00 AM 58.3967 33.0260 313° West  Level FlightAware Approximate
Mon 05:51:00 AM 58.4748 32.8622 312° West  Level FlightAware Approximate
Mon 05:52:00 AM 58.5526 32.6976 312° West  Level FlightAware Approximate
Mon 05:53:00 AM 58.6303 32.5324 312° West  Level FlightAware Approximate
Mon 05:54:00 AM 58.7077 32.3664 312° West  Level FlightAware Approximate
Mon 05:55:00 AM 58.7849 32.1996 312° West  Level FlightAware Approximate
Mon 05:56:00 AM 58.8619 32.0321 312° West  Level FlightAware Approximate
Mon 05:57:00 AM 58.9387 31.8639 312° West  Level FlightAware Approximate
Mon 05:58:00 AM 59.0153 31.6949 311° West  Level FlightAware Approximate
Mon 05:59:00 AM 59.0916 31.5252 311° West  Level FlightAware Approximate
Mon 06:00:00 AM 59.1677 31.3547 311° West  Level FlightAware Approximate
Mon 06:01:00 AM 59.2436 31.1835 311° West  Level FlightAware Approximate
Mon 06:02:00 AM 59.3193 31.0115 311° West  Level FlightAware Approximate
Mon 06:03:00 AM 59.3947 30.8387 311° West  Level FlightAware Approximate
Mon 06:04:00 AM 59.4700 30.6651 311° West  Level FlightAware Approximate
Mon 06:05:00 AM 59.5449 30.4908 310° West  Level FlightAware Approximate
Mon 06:06:00 AM 59.6197 30.3157 310° West  Level FlightAware Approximate
Mon 06:07:00 AM 59.6942 30.1399 310° West  Level FlightAware Approximate
Mon 06:08:00 AM 59.7685 29.9632 310° West  Level FlightAware Approximate
Mon 06:09:00 AM 59.8425 29.7857 310° West  Level FlightAware Approximate
Mon 06:10:00 AM 59.9163 29.6075 310° West  Level FlightAware Approximate
Mon 06:11:00 AM 59.9899 29.4285 309° West  Level FlightAware Approximate
Mon 06:12:00 AM 60.0632 29.2487 309° West  Level FlightAware Approximate
Mon 06:13:00 AM 60.1363 29.0680 309° West  Level FlightAware Approximate
Mon 06:14:00 AM 60.2091 28.8866 309° West  Level FlightAware Approximate
Mon 06:15:00 AM 60.2817 28.7044 309° West  Level FlightAware Approximate
Mon 06:16:00 AM 60.3540 28.5213 309° West  Level FlightAware Approximate
Mon 06:17:00 AM 60.4261 28.3375 309° West  Level FlightAware Approximate
Mon 06:18:00 AM 60.4979 28.1528 308° West  Level FlightAware Approximate
Mon 06:19:00 AM 60.5695 27.9673 308° West  Level FlightAware Approximate
Mon 06:20:00 AM 60.6408 27.7810 308° West  Level FlightAware Approximate
Mon 06:21:00 AM 60.7118 27.5939 308° West  Level FlightAware Approximate
Mon 06:22:00 AM 60.7826 27.4059 308° West  Level FlightAware Approximate
Mon 06:23:00 AM 60.8531 27.2171 308° West  Level FlightAware Approximate
Mon 06:24:00 AM 60.9234 27.0275 307° West  Level FlightAware Approximate
Mon 06:25:00 AM 60.9933 26.8370 307° West  Level FlightAware Approximate
Mon 06:26:00 AM 61.0631 26.6458 307° West  Level FlightAware Approximate
Mon 06:27:00 AM 61.1325 26.4536 307° West  Level FlightAware Approximate
Mon 06:28:00 AM 61.2017 26.2606 307° West  Level FlightAware Approximate
Mon 06:29:00 AM 61.2706 26.0668 307° West  Level FlightAware Approximate
Mon 06:30:00 AM 61.3392 25.8721 306° West  Level FlightAware Approximate
Mon 06:31:00 AM 61.4075 25.6765 306° West  Level FlightAware Approximate
Mon 06:32:00 AM 61.4756 25.4802 306° West  Level FlightAware Approximate
Mon 06:33:00 AM 61.5434 25.2829 306° West  Level FlightAware Approximate
Mon 06:34:00 AM 61.6108 25.0848 306° West  Level FlightAware Approximate
Mon 06:35:00 AM 61.6780 24.8858 306° West  Level FlightAware Approximate
Mon 06:36:00 AM 61.7449 24.6860 305° West  Level FlightAware Approximate
Mon 06:37:00 AM 61.8116 24.4852 305° West  Level FlightAware Approximate
Mon 06:38:00 AM 61.8779 24.2837 305° West  Level FlightAware Approximate
Mon 06:39:00 AM 61.9439 24.0812 305° West  Level FlightAware Approximate
Mon 06:40:00 AM 62.0096 23.8779 305° West  Level FlightAware Approximate
Mon 06:41:00 AM 62.0751 23.6737 304° West  Level FlightAware Approximate
Mon 06:42:00 AM 62.1402 23.4686 304° West  Level FlightAware Approximate
Mon 06:43:00 AM 62.2050 23.2626 304° West  Level FlightAware Approximate
Mon 06:44:00 AM 62.2695 23.0557 304° West  Level FlightAware Approximate
Mon 06:45:00 AM 62.3337 22.8480 304° West  Level FlightAware Approximate
Mon 06:46:00 AM 62.3976 22.6394 304° West  Level FlightAware Approximate
Mon 06:47:00 AM 62.4612 22.4298 303° West  Level FlightAware Approximate
Mon 06:48:00 AM 62.5245 22.2194 303° West  Level FlightAware Approximate
Mon 06:49:00 AM 62.5874 22.0081 303° West  Level FlightAware Approximate
Mon 06:50:00 AM 62.6500 21.7959 303° West  Level FlightAware Approximate
Mon 06:51:00 AM 62.7123 21.5828 303° West  Level FlightAware Approximate
Mon 06:52:00 AM 62.7743 21.3688 302° West  Level FlightAware Approximate
Mon 06:53:00 AM 62.8360 21.1539 302° West  Level FlightAware Approximate
Mon 06:54:00 AM 62.8973 20.9382 302° West  Level FlightAware Approximate
Mon 06:55:00 AM 62.9583 20.7215 302° West  Level FlightAware Approximate
Mon 06:56:00 AM 63.0190 20.5039 302° West  Level FlightAware Approximate
Mon 06:57:00 AM 63.0793 20.2854 301° West  Level FlightAware Approximate
Mon 06:58:00 AM 63.1393 20.0659 301° West  Level FlightAware Approximate
Mon 06:59:00 AM 63.1989 19.8456 301° West  Level FlightAware Approximate
Mon 07:00:00 AM 63.2582 19.6244 301° West  Level FlightAware Approximate
Mon 07:01:00 AM 63.3172 19.4023 301° West  Level FlightAware Approximate
Mon 07:02:00 AM 63.3758 19.1792 300° West  Level FlightAware Approximate
Mon 07:03:00 AM 63.4341 18.9553 300° West  Level FlightAware Approximate
Mon 07:04:00 AM 63.4920 18.7304 300° West  Level FlightAware Approximate
Mon 07:05:00 AM 63.5495 18.5047 300° West  Level FlightAware Approximate
Mon 07:06:00 AM 63.6068 18.2780 300° West  Level FlightAware Approximate
Mon 07:07:00 AM 63.6636 18.0504 299° West  Level FlightAware Approximate
Mon 07:08:00 AM 63.7201 17.8219 299° West  Level FlightAware Approximate
Mon 07:09:00 AM 63.7762 17.5925 299° West  Level FlightAware Approximate
Mon 07:10:00 AM 63.8320 17.3621 299° West  Level FlightAware Approximate
Mon 07:11:00 AM 63.8873 17.1309 299° West  Level FlightAware Approximate
Mon 07:12:00 AM 63.9424 16.8988 298° West  Level FlightAware Approximate
Mon 07:13:00 AM 63.9970 16.6657 298° West  Level FlightAware Approximate
Mon 07:14:00 AM 64.0513 16.4317 298° West  Level FlightAware Approximate
Mon 07:15:00 AM 64.1052 16.1968 298° West  Level FlightAware Approximate
Mon 07:16:00 AM 64.1587 15.9611 298° West  Level FlightAware Approximate
Mon 07:17:00 AM 64.2118 15.7244 297° West  Level FlightAware Approximate
Mon 07:18:00 AM 64.2646 15.4868 297° West  Level FlightAware Approximate
Mon 07:19:00 AM 64.3169 15.2483 297° West  Level FlightAware Approximate
Mon 07:20:00 AM 64.3689 15.0089 297° West  Level FlightAware Approximate
Mon 07:21:00 AM 64.4205 14.7685 297° West  Level FlightAware Approximate
Mon 07:22:00 AM 64.4716 14.5273 296° West  Level FlightAware Approximate
Mon 07:23:00 AM 64.5224 14.2852 296° West  Level FlightAware Approximate
Mon 07:24:00 AM 64.5728 14.0422 296° West  Level FlightAware Approximate
Mon 07:25:00 AM 64.6228 13.7983 296° West  Level FlightAware Approximate
Mon 07:26:00 AM 64.6724 13.5535 295° West  Level FlightAware Approximate
Mon 07:27:00 AM 64.7216 13.3077 295° West  Level FlightAware Approximate
Mon 07:28:00 AM 64.7703 13.0612 295° West  Level FlightAware Approximate
Mon 07:29:00 AM 64.8187 12.8137 295° West  Level FlightAware Approximate
Mon 07:30:00 AM 64.8667 12.5653 295° West  Level FlightAware Approximate
Mon 07:31:00 AM 64.9142 12.3161 294° West  Level FlightAware Approximate
Mon 07:32:00 AM 64.9613 12.0659 294° West  Level FlightAware Approximate
Mon 07:33:00 AM 65.0080 11.8149 294° West  Level FlightAware Approximate
Mon 07:34:00 AM 65.0543 11.5630 294° West  Level FlightAware Approximate
Mon 07:35:00 AM 65.1001 11.3103 293° West  Level FlightAware Approximate
Mon 07:36:00 AM 65.1455 11.0566 293° West  Level FlightAware Approximate
Mon 07:37:00 AM 65.1905 10.8021 293° West  Level FlightAware Approximate
Mon 07:38:00 AM 65.2351 10.5468 293° West  Level FlightAware Approximate
Mon 07:39:00 AM 65.2792 10.2906 292° West  Level FlightAware Approximate
Mon 07:40:00 AM 65.3229 10.0335 292° West  Level FlightAware Approximate
Mon 07:41:00 AM 65.3661 9.7756 292° West  Level FlightAware Approximate
Mon 07:42:00 AM 65.4089 9.5168 292° West  Level FlightAware Approximate
Mon 07:43:00 AM 65.4513 9.2572 292° West  Level FlightAware Approximate
Mon 07:44:00 AM 65.4932 8.9968 291° West  Level FlightAware Approximate
Mon 07:45:00 AM 65.5347 8.7355 291° West  Level FlightAware Approximate
Mon 07:46:00 AM 65.5757 8.4734 291° West  Level FlightAware Approximate
Mon 07:47:00 AM 65.6162 8.2105 291° West  Level FlightAware Approximate
Mon 07:48:00 AM 65.6563 7.9467 290° West  Level FlightAware Approximate
Mon 07:49:00 AM 65.6960 7.6822 290° West  Level FlightAware Approximate
Mon 07:50:00 AM 65.7352 7.4168 290° West  Level FlightAware Approximate
Mon 07:51:00 AM 65.7739 7.1506 290° West  Level FlightAware Approximate
Mon 07:52:00 AM 65.8122 6.8837 289° West  Level FlightAware Approximate
Mon 07:53:00 AM 65.8500 6.6159 289° West  Level FlightAware Approximate
Mon 07:54:00 AM 65.8873 6.3474 289° West  Level FlightAware Approximate
Mon 07:55:00 AM 65.9242 6.0781 289° West  Level FlightAware Approximate
Mon 07:56:00 AM 65.9606 5.8080 288° West  Level FlightAware Approximate
Mon 07:57:00 AM 65.9965 5.5371 288° West  Level FlightAware Approximate
Mon 07:58:00 AM 66.0319 5.2655 288° West  Level FlightAware Approximate
Mon 07:59:00 AM 66.0669 4.9932 288° West  Level FlightAware Approximate
Mon 08:00:00 AM 66.1013 4.7200 287° West  Level FlightAware Approximate
Mon 08:01:00 AM 66.1353 4.4462 287° West  Level FlightAware Approximate
Mon 08:02:00 AM 66.1688 4.1716 287° West  Level FlightAware Approximate
Mon 08:03:00 AM 66.2019 3.8963 287° West  Level FlightAware Approximate
Mon 08:04:00 AM 66.2344 3.6203 286° West  Level FlightAware Approximate
Mon 08:05:00 AM 66.2664 3.3436 286° West  Level FlightAware Approximate
Mon 08:06:00 AM 66.2980 3.0662 286° West  Level FlightAware Approximate
Mon 08:07:00 AM 66.3290 2.7881 286° West  Level FlightAware Approximate
Mon 08:08:00 AM 66.3596 2.5093 285° West  Level FlightAware Approximate
Mon 08:09:00 AM 66.3896 2.2298 285° West  Level FlightAware Approximate
Mon 08:10:00 AM 66.4192 1.9497 285° West  Level FlightAware Approximate
Mon 08:11:00 AM 66.4482 1.6689 285° West  Level FlightAware Approximate
Mon 08:12:00 AM 66.4767 1.3875 284° West  Level FlightAware Approximate
Mon 08:13:00 AM 66.5048 1.1054 284° West  Level FlightAware Approximate
Mon 08:14:00 AM 66.5323 0.8227 284° West  Level FlightAware Approximate
Mon 08:15:00 AM 66.5593 0.5393 284° West  Level FlightAware Approximate
Mon 08:16:00 AM 66.5858 0.2554 283° West  Level FlightAware Approximate
Mon 08:17:00 AM 66.6118 -0.0291 283° West  Level FlightAware Approximate
Mon 08:18:00 AM 66.6373 -0.3143 283° West  Level FlightAware Approximate
Mon 08:19:00 AM 66.6622 -0.6000 283° West  Level FlightAware Approximate
Mon 08:20:00 AM 66.6867 -0.8863 282° West  Level FlightAware Approximate
Mon 08:21:00 AM 66.7106 -1.1731 282° West  Level FlightAware Approximate
Mon 08:22:00 AM 66.7340 -1.4605 282° West  Level FlightAware Approximate
Mon 08:23:00 AM 66.7568 -1.7484 282° West  Level FlightAware Approximate
Mon 08:24:00 AM 66.7792 -2.0369 281° West  Level FlightAware Approximate
Mon 08:25:00 AM 66.8010 -2.3259 281° West  Level FlightAware Approximate
Mon 08:26:00 AM 66.8223 -2.6154 281° West  Level FlightAware Approximate
Mon 08:27:00 AM 66.8430 -2.9054 280° West  Level FlightAware Approximate
Mon 08:28:00 AM 66.8632 -3.1958 280° West  Level FlightAware Approximate
Mon 08:29:00 AM 66.8829 -3.4868 280° West  Level FlightAware Approximate
Mon 08:30:00 AM 66.9021 -3.7782 280° West  Level FlightAware Approximate
Mon 08:31:00 AM 66.9207 -4.0701 279° West  Level FlightAware Approximate
Mon 08:32:00 AM 66.9388 -4.3624 279° West  Level FlightAware Approximate
Mon 08:33:00 AM 66.9563 -4.6551 279° West  Level FlightAware Approximate
Mon 08:34:00 AM 66.9733 -4.9482 279° West  Level FlightAware Approximate
Mon 08:35:00 AM 66.9898 -5.2418 278° West  Level FlightAware Approximate
Mon 08:36:00 AM 67.0057 -5.5357 278° West  Level FlightAware Approximate
Mon 08:37:00 AM 67.0211 -5.8300 278° West  Level FlightAware Approximate
Mon 08:38:00 AM 67.0359 -6.1247 277° West  Level FlightAware Approximate
Mon 08:39:00 AM 67.0502 -6.4198 277° West  Level FlightAware Approximate
Mon 08:40:00 AM 67.0640 -6.7151 277° West  Level FlightAware Approximate
Mon 08:41:00 AM 67.0772 -7.0108 277° West  Level FlightAware Approximate
Mon 08:42:00 AM 67.0898 -7.3068 276° West  Level FlightAware Approximate
Mon 08:43:00 AM 67.1019 -7.6032 276° West  Level FlightAware Approximate
Mon 08:44:00 AM 67.1135 -7.8998 276° West  Level FlightAware Approximate
Mon 08:45:00 AM 67.1245 -8.1967 276° West  Level FlightAware Approximate
Mon 08:46:00 AM 67.1349 -8.4938 275° West  Level FlightAware Approximate
Mon 08:47:00 AM 67.1448 -8.7912 275° West  Level FlightAware Approximate
Mon 08:48:00 AM 67.1542 -9.0889 275° West  Level FlightAware Approximate
Mon 08:49:00 AM 67.1630 -9.3867 274° West  Level FlightAware Approximate
Mon 08:50:00 AM 67.1712 -9.6848 274° West  Level FlightAware Approximate
Mon 08:51:00 AM 67.1789 -9.9831 274° West  Level FlightAware Approximate
Mon 08:52:00 AM 67.1860 -10.2815 274° West  Level FlightAware Approximate
Mon 08:53:00 AM 67.1926 -10.5802 273° West  Level FlightAware Approximate
Mon 08:54:00 AM 67.1986 -10.8790 273° West  Level FlightAware Approximate
Mon 08:55:00 AM 67.2040 -11.1779 273° West  Level FlightAware Approximate
Mon 08:56:00 AM 67.2089 -11.4769 273° West  Level FlightAware Approximate
Mon 08:57:00 AM 67.2133 -11.7761 272° West  Level FlightAware Approximate
Mon 08:58:00 AM 67.2171 -12.0753 272° West  Level FlightAware Approximate
Mon 08:59:00 AM 67.2203 -12.3747 272° West  Level FlightAware Approximate
Mon 09:00:00 AM 67.2230 -12.6741 271° West  Level FlightAware Approximate
Mon 09:01:00 AM 67.2251 -12.9736 271° West  Level FlightAware Approximate
Mon 09:02:00 AM 67.2266 -13.2732 271° West  Level FlightAware Approximate
Mon 09:03:00 AM 67.2276 -13.5727 271° West  Level FlightAware Approximate
Mon 09:04:00 AM 67.2280 -13.8723 270° West  Level FlightAware Approximate
Mon 09:05:00 AM 67.2279 -14.1719 270° West  Level FlightAware Approximate
Mon 09:06:00 AM 67.2272 -14.4715 270° West  Level FlightAware Approximate
Mon 09:07:00 AM 67.2260 -14.7710 270° West  Level FlightAware Approximate
Mon 09:08:00 AM 67.2242 -15.0705 269° West  Level FlightAware Approximate
Mon 09:09:00 AM 67.2218 -15.3700 269° West  Level FlightAware Approximate
Mon 09:10:00 AM 67.2189 -15.6694 269° West  Level FlightAware Approximate
Mon 09:11:00 AM 67.2154 -15.9687 268° West  Level FlightAware Approximate
Mon 09:12:00 AM 67.2113 -16.2679 268° West  Level FlightAware Approximate
Mon 09:13:00 AM 67.2067 -16.5670 268° West  Level FlightAware Approximate
Mon 09:14:00 AM 67.2016 -16.8660 268° West  Level FlightAware Approximate
Mon 09:15:00 AM 67.1959 -17.1649 267° West  Level FlightAware Approximate
Mon 09:16:00 AM 67.1896 -17.4636 267° West  Level FlightAware Approximate
Mon 09:17:00 AM 67.1828 -17.7621 267° West  Level FlightAware Approximate
Mon 09:18:00 AM 67.1754 -18.0605 266° West  Level FlightAware Approximate
Mon 09:19:00 AM 67.1675 -18.3587 266° West  Level FlightAware Approximate
Mon 09:20:00 AM 67.1590 -18.6567 266° West  Level FlightAware Approximate
Mon 09:21:00 AM 67.1499 -18.9544 266° West  Level FlightAware Approximate
Mon 09:22:00 AM 67.1403 -19.2520 265° West  Level FlightAware Approximate
Mon 09:23:00 AM 67.1302 -19.5493 265° West  Level FlightAware Approximate
Mon 09:24:00 AM 67.1195 -19.8463 265° West  Level FlightAware Approximate
Mon 09:25:00 AM 67.1082 -20.1431 265° West  Level FlightAware Approximate
Mon 09:26:00 AM 67.0964 -20.4395 264° West  Level FlightAware Approximate
Mon 09:27:00 AM 67.0841 -20.7357 264° West  Level FlightAware Approximate
Mon 09:28:00 AM 67.0712 -21.0316 264° West  Level FlightAware Approximate
Mon 09:29:00 AM 67.0577 -21.3272 263° West  Level FlightAware Approximate
Mon 09:30:00 AM 67.0437 -21.6224 263° West  Level FlightAware Approximate
Mon 09:31:00 AM 67.0292 -21.9173 263° West  Level FlightAware Approximate
Mon 09:32:00 AM 67.0141 -22.2118 263° West  Level FlightAware Approximate
Mon 09:33:00 AM 66.9985 -22.5059 262° West  Level FlightAware Approximate
Mon 09:34:00 AM 66.9823 -22.7997 262° West  Level FlightAware Approximate
Mon 09:35:00 AM 66.9656 -23.0930 262° West  Level FlightAware Approximate
Mon 09:36:00 AM 66.9483 -23.3860 262° West  Level FlightAware Approximate
Mon 09:37:00 AM 66.9305 -23.6785 261° West  Level FlightAware Approximate
Mon 09:38:00 AM 66.9115 -23.9703 261° West  Level FlightAware Approximate
Mon 09:39:00 AM 66.8920 -24.2617 260° West  Level FlightAware Approximate
Mon 09:40:00 AM 66.8720 -24.5526 260° West  Level FlightAware Approximate
Mon 09:41:00 AM 66.8515 -24.8431 260° West  Level FlightAware Approximate
Mon 09:42:00 AM 66.8304 -25.1330 260° West  Level FlightAware Approximate
Mon 09:43:00 AM 66.8088 -25.4224 259° West  Level FlightAware Approximate
Mon 09:44:00 AM 66.7867 -25.7113 259° West  Level FlightAware Approximate
Mon 09:45:00 AM 66.7641 -25.9998 259° West  Level FlightAware Approximate
Mon 09:46:00 AM 66.7417 -26.2880 259° West  Level FlightAware Approximate
Mon 09:47:00 AM 66.7188 -26.5758 259° West  Level FlightAware Approximate
Mon 09:48:00 AM 66.6954 -26.8630 258° West  Level FlightAware Approximate
Mon 09:49:00 AM 66.6714 -27.1496 258° West  Level FlightAware Approximate
Mon 09:50:00 AM 66.6469 -27.4357 258° West  Level FlightAware Approximate
Mon 09:51:00 AM 66.6219 -27.7212 258° West  Level FlightAware Approximate
Mon 09:52:00 AM 66.5964 -28.0061 257° West  Level FlightAware Approximate
Mon 09:53:00 AM 66.5704 -28.2905 257° West  Level FlightAware Approximate
Mon 09:54:00 AM 66.5438 -28.5742 257° West  Level FlightAware Approximate
Mon 09:55:00 AM 66.5167 -28.8573 257° West  Level FlightAware Approximate
Mon 09:56:00 AM 66.4892 -29.1398 256° West  Level FlightAware Approximate
Mon 09:57:00 AM 66.4611 -29.4217 256° West  Level FlightAware Approximate
Mon 09:58:00 AM 66.4325 -29.7029 256° West  Level FlightAware Approximate
Mon 09:59:00 AM 66.4034 -29.9835 256° West  Level FlightAware Approximate
Mon 10:00:00 AM 66.3738 -30.2634 255° West  Level FlightAware Approximate
Mon 10:01:00 AM 66.3437 -30.5427 255° West  Level FlightAware Approximate
Mon 10:02:00 AM 66.3131 -30.8213 255° West  Level FlightAware Approximate
Mon 10:03:00 AM 66.2820 -31.0992 255° West  Level FlightAware Approximate
Mon 10:04:00 AM 66.2504 -31.3764 254° West  Level FlightAware Approximate
Mon 10:05:00 AM 66.2184 -31.6529 254° West  Level FlightAware Approximate
Mon 10:06:00 AM 66.1858 -31.9287 254° West  Level FlightAware Approximate
Mon 10:07:00 AM 66.1527 -32.2038 254° West  Level FlightAware Approximate
Mon 10:08:00 AM 66.1192 -32.4782 253° West  Level FlightAware Approximate
Mon 10:09:00 AM 66.0851 -32.7518 253° West  Level FlightAware Approximate
Mon 10:10:00 AM 66.0506 -33.0247 253° West  Level FlightAware Approximate
Mon 10:11:00 AM 66.0156 -33.2968 253° West  Level FlightAware Approximate
Mon 10:12:00 AM 65.9801 -33.5683 252° West  Level FlightAware Approximate
Mon 10:13:00 AM 65.9442 -33.8389 252° West  Level FlightAware Approximate
Mon 10:14:00 AM 65.9078 -34.1088 252° West  Level FlightAware Approximate
Mon 10:15:00 AM 65.8709 -34.3779 252° West  Level FlightAware Approximate
Mon 10:16:00 AM 65.8335 -34.6462 251° West  Level FlightAware Approximate
Mon 10:17:00 AM 65.7956 -34.9138 251° West  Level FlightAware Approximate
Mon 10:18:00 AM 65.7572 -35.1804 251° West  Level FlightAware Approximate
Mon 10:19:00 AM 65.7182 -35.4462 250° West  Level FlightAware Approximate
Mon 10:20:00 AM 65.6788 -35.7112 250° West  Level FlightAware Approximate
Mon 10:21:00 AM 65.6389 -35.9754 250° West  Level FlightAware Approximate
Mon 10:22:00 AM 65.5986 -36.2387 250° West  Level FlightAware Approximate
Mon 10:23:00 AM 65.5579 -36.5013 250° West  Level FlightAware Approximate
Mon 10:24:00 AM 65.5166 -36.7630 249° West  Level FlightAware Approximate
Mon 10:25:00 AM 65.4749 -37.0239 249° West  Level FlightAware Approximate
Mon 10:26:00 AM 65.4328 -37.2840 249° West  Level FlightAware Approximate
Mon 10:27:00 AM 65.3903 -37.5432 249° West  Level FlightAware Approximate
Mon 10:28:00 AM 65.3472 -37.8016 248° West  Level FlightAware Approximate
Mon 10:29:00 AM 65.3038 -38.0591 248° West  Level FlightAware Approximate
Mon 10:30:00 AM 65.2599 -38.3158 248° West  Level FlightAware Approximate
Mon 10:31:00 AM 65.2156 -38.5716 248° West  Level FlightAware Approximate
Mon 10:32:00 AM 65.1708 -38.8266 247° West  Level FlightAware Approximate
Mon 10:33:00 AM 65.1256 -39.0807 247° West  Level FlightAware Approximate
Mon 10:34:00 AM 65.0800 -39.3339 247° West  Level FlightAware Approximate
Mon 10:35:00 AM 65.0340 -39.5863 247° West  Level FlightAware Approximate
Mon 10:36:00 AM 64.9875 -39.8378 246° West  Level FlightAware Approximate
Mon 10:37:00 AM 64.9406 -40.0884 246° West  Level FlightAware Approximate
Mon 10:38:00 AM 64.8933 -40.3381 246° West  Level FlightAware Approximate
Mon 10:39:00 AM 64.8456 -40.5870 246° West  Level FlightAware Approximate
Mon 10:40:00 AM 64.7974 -40.8349 246° West  Level FlightAware Approximate
Mon 10:41:00 AM 64.7489 -41.0820 245° Southwest  Level FlightAware Approximate
Mon 10:42:00 AM 64.6999 -41.3282 245° Southwest  Level FlightAware Approximate
Mon 10:43:00 AM 64.6506 -41.5735 245° Southwest  Level FlightAware Approximate
Mon 10:44:00 AM 64.6008 -41.8179 245° Southwest  Level FlightAware Approximate
Mon 10:45:00 AM 64.5506 -42.0614 244° Southwest  Level FlightAware Approximate
Mon 10:46:00 AM 64.5000 -42.3040 244° Southwest  Level FlightAware Approximate
Mon 10:47:00 AM 64.4491 -42.5457 244° Southwest  Level FlightAware Approximate
Mon 10:48:00 AM 64.3977 -42.7865 244° Southwest  Level FlightAware Approximate
Mon 10:49:00 AM 64.3459 -43.0264 244° Southwest  Level FlightAware Approximate
Mon 10:50:00 AM 64.2938 -43.2654 243° Southwest  Level FlightAware Approximate
Mon 10:51:00 AM 64.2412 -43.5035 243° Southwest  Level FlightAware Approximate
Mon 10:52:00 AM 64.1883 -43.7407 243° Southwest  Level FlightAware Approximate
Mon 10:53:00 AM 64.1350 -43.9770 243° Southwest  Level FlightAware Approximate
Mon 10:54:00 AM 64.0813 -44.2124 243° Southwest  Level FlightAware Approximate
Mon 10:55:00 AM 64.0272 -44.4468 242° Southwest  Level FlightAware Approximate
Mon 10:56:00 AM 63.9728 -44.6804 242° Southwest  Level FlightAware Approximate
Mon 10:57:00 AM 63.9180 -44.9130 242° Southwest  Level FlightAware Approximate
Mon 10:58:00 AM 63.8628 -45.1448 242° Southwest  Level FlightAware Approximate
Mon 10:59:00 AM 63.8072 -45.3756 241° Southwest  Level FlightAware Approximate
Mon 11:00:00 AM 63.7513 -45.6055 241° Southwest  Level FlightAware Approximate
Mon 11:01:00 AM 63.6950 -45.8345 241° Southwest  Level FlightAware Approximate
Mon 11:02:00 AM 63.6383 -46.0626 241° Southwest  Level FlightAware Approximate
Mon 11:03:00 AM 63.5813 -46.2897 241° Southwest  Level FlightAware Approximate
Mon 11:04:00 AM 63.5239 -46.5160 240° Southwest  Level FlightAware Approximate
Mon 11:05:00 AM 63.4662 -46.7414 240° Southwest  Level FlightAware Approximate
Mon 11:06:00 AM 63.4081 -46.9658 240° Southwest  Level FlightAware Approximate
Mon 11:07:00 AM 63.3497 -47.1893 240° Southwest  Level FlightAware Approximate
Mon 11:08:00 AM 63.2909 -47.4120 240° Southwest  Level FlightAware Approximate
Mon 11:09:00 AM 63.2318 -47.6337 239° Southwest  Level FlightAware Approximate
Mon 11:10:00 AM 63.1723 -47.8545 239° Southwest  Level FlightAware Approximate
Mon 11:11:00 AM 63.1125 -48.0744 239° Southwest  Level FlightAware Approximate
Mon 11:12:00 AM 63.0524 -48.2934 239° Southwest  Level FlightAware Approximate
Mon 11:13:00 AM 62.9919 -48.5115 239° Southwest  Level FlightAware Approximate
Mon 11:14:00 AM 62.9311 -48.7287 238° Southwest  Level FlightAware Approximate
Mon 11:15:00 AM 62.8699 -48.9449 238° Southwest  Level FlightAware Approximate
Mon 11:16:00 AM 62.8084 -49.1603 238° Southwest  Level FlightAware Approximate
Mon 11:17:00 AM 62.7466 -49.3748 238° Southwest  Level FlightAware Approximate
Mon 11:18:00 AM 62.6845 -49.5884 238° Southwest  Level FlightAware Approximate
Mon 11:19:00 AM 62.6221 -49.8011 238° Southwest  Level FlightAware Approximate
Mon 11:20:00 AM 62.5593 -50.0129 237° Southwest  Level FlightAware Approximate
Mon 11:21:00 AM 62.4962 -50.2238 237° Southwest  Level FlightAware Approximate
Mon 11:22:00 AM 62.4328 -50.4338 237° Southwest  Level FlightAware Approximate
Mon 11:23:00 AM 62.3690 -50.6429 237° Southwest  Level FlightAware Approximate
Mon 11:24:00 AM 62.3050 -50.8511 237° Southwest  Level FlightAware Approximate
Mon 11:25:00 AM 62.2406 -51.0584 236° Southwest  Level FlightAware Approximate
Mon 11:26:00 AM 62.1760 -51.2649 236° Southwest  Level FlightAware Approximate
Mon 11:27:00 AM 62.1110 -51.4704 236° Southwest  Level FlightAware Approximate
Mon 11:28:00 AM 62.0457 -51.6751 236° Southwest  Level FlightAware Approximate
Mon 11:29:00 AM 61.9802 -51.8789 236° Southwest  Level FlightAware Approximate
Mon 11:30:00 AM 61.9143 -52.0818 235° Southwest  Level FlightAware Approximate
Mon 11:31:00 AM 61.8481 -52.2839 235° Southwest  Level FlightAware Approximate
Mon 11:31:49 AM 63.4333 -55.8000 221° Southwest 470 541 37,000  Level Gander Center
Mon 11:32:00 AM 61.7817 -52.4851 235° Southwest  Level FlightAware Approximate
Mon 11:33:00 AM 61.7149 -52.6854 235° Southwest  Level FlightAware Approximate
Mon 11:33:00 AM 63.3514 -56.0566 235° Southwest  Level FlightAware Approximate
Mon 11:33:30 AM 63.3333 -56.1500 235° Southwest 430 495 37,000  Level Gander Center
Mon 11:34:00 AM 61.6479 -52.8848 235° Southwest  Level FlightAware Approximate
Mon 11:34:30 AM 63.2500 -56.3833 232° Southwest 460 529 37,000  Level Gander Center
Mon 11:35:00 AM 61.5806 -53.0834 235° Southwest  Level FlightAware Approximate
Mon 11:35:30 AM 63.1833 -56.6167 238° Southwest 470 541 37,000  Level Gander Center
Mon 11:36:00 AM 61.4903 -53.2471 221° Southwest  Level Estimated
Mon 11:36:30 AM 63.1000 -56.8500 232° Southwest 470 541 37,000  Level Gander Center
Mon 11:37:00 AM 61.3999 -53.4099 221° Southwest  Level Estimated
Mon 11:37:30 AM 63.0333 -57.0833 238° Southwest 470 541 37,000  Level Gander Center
Mon 11:38:30 AM 62.9500 -57.3167 232° Southwest 470 541 37,000  Level Gander Center
Mon 11:39:30 AM 62.8667 -57.5833 236° Southwest 470 541 37,000  Level Gander Center
Mon 11:40:30 AM 62.8167 -57.8000 243° Southwest 470 541 37,000  Level Gander Center
Mon 11:41:16 AM 62.7333 -57.9167 213° Southwest 480 552 37,000  Level Montreal Center
Mon 11:42:17 AM 62.6667 -58.1500 238° Southwest 470 541 37,000  Level Montreal Center
Mon 11:43:17 AM 62.5833 -58.3833 232° Southwest 470 541 37,000  Level Montreal Center
Mon 11:44:17 AM 62.5167 -58.6167 238° Southwest 470 541 37,000  Level Montreal Center
Mon 11:45:16 AM 62.4333 -58.8333 230° Southwest 470 541 37,000  Level Montreal Center
Mon 11:46:16 AM 62.3667 -59.0667 238° Southwest 470 541 37,000  Level Montreal Center
Mon 11:47:16 AM 62.2833 -59.3000 233° Southwest 470 541 37,000  Level Montreal Center
Mon 11:48:16 AM 62.2167 -59.5167 237° Southwest 470 541 37,000  Level Montreal Center
Mon 11:49:16 AM 62.1333 -59.7833 236° Southwest 470 541 37,000  Level Montreal Center
Mon 11:50:16 AM 62.0667 -60.0000 237° Southwest 480 552 37,000  Level Montreal Center
Mon 11:51:16 AM 61.9833 -60.2333 233° Southwest 470 541 37,000  Level Montreal Center
Mon 11:52:16 AM 61.9000 -60.4500 231° Southwest 480 552 37,000  Level Montreal Center
Mon 11:53:16 AM 61.8333 -60.6667 237° Southwest 480 552 37,000  Level Montreal Center
Mon 11:54:16 AM 61.7333 -60.9000 228° Southwest 480 552 37,000  Level Montreal Center
Mon 11:55:16 AM 61.6667 -61.1000 235° Southwest 480 552 37,000  Level Montreal Center
Mon 11:56:16 AM 61.5667 -61.3333 228° Southwest 480 552 37,000  Level Montreal Center
Mon 11:57:16 AM 61.5000 -61.5833 241° Southwest 480 552 37,000  Level Montreal Center
Mon 11:58:16 AM 61.4167 -61.8000 231° Southwest 470 541 37,000  Level Montreal Center
Mon 11:59:16 AM 61.3333 -62.0000 229° Southwest 480 552 37,000  Level Montreal Center
Mon 12:00:16 PM 61.2500 -62.2167 231° Southwest 470 541 37,000  Level Montreal Center
Mon 12:01:16 PM 61.1667 -62.4333 231° Southwest 470 541 37,000  Level Montreal Center
Mon 12:02:16 PM 61.1000 -62.6500 238° Southwest 500 575 37,000  Level Montreal Center
Mon 12:03:16 PM 61.0167 -62.8500 229° Southwest 480 552 37,000  Level Montreal Center
Mon 12:04:16 PM 60.9333 -63.0667 232° Southwest 470 541 37,000  Level Montreal Center
Mon 12:05:16 PM 60.8333 -63.3000 229° Southwest 480 552 37,000 50 Level Montreal Center
Mon 12:06:16 PM 60.7500 -63.5167 232° Southwest 480 552 37,100 300 Climbing Montreal Center
Mon 12:07:16 PM 60.6667 -63.7500 234° Southwest 480 552 37,600 450 Climbing Montreal Center
Mon 12:08:16 PM 60.5833 -63.9500 230° Southwest 470 541 38,000 200 Climbing Montreal Center
Mon 12:09:16 PM 60.5000 -64.1667 232° Southwest 470 541 38,000  Level Montreal Center
Mon 12:10:16 PM 60.4167 -64.3667 230° Southwest 480 552 38,000  Level Montreal Center
Mon 12:11:16 PM 60.3333 -64.5667 230° Southwest 470 541 38,000  Level Montreal Center
Mon 12:12:16 PM 60.2500 -64.7667 230° Southwest 470 541 38,000  Level Montreal Center
Mon 12:13:16 PM 60.1667 -64.9667 230° Southwest 470 541 38,000  Level Montreal Center
Mon 12:14:16 PM 60.0667 -65.1500 222° Southwest 470 541 38,000  Level Montreal Center
Mon 12:15:16 PM 59.9667 -65.3333 223° Southwest 470 541 38,000  Level Montreal Center
Mon 12:16:16 PM 59.8667 -65.5000 220° Southwest 470 541 38,000  Level Montreal Center
Mon 12:17:16 PM 59.7833 -65.6833 228° Southwest 480 552 38,000  Level Montreal Center
Mon 12:18:16 PM 59.6667 -65.8500 216° Southwest 480 552 38,000  Level Montreal Center
Mon 12:19:16 PM 59.5667 -66.0167 220° Southwest 480 552 38,000  Level Montreal Center
Mon 12:20:16 PM 59.4833 -66.1833 225° Southwest 480 552 38,000  Level Montreal Center
Mon 12:21:16 PM 59.3667 -66.3833 221° Southwest 480 552 38,000  Level Montreal Center
Mon 12:22:16 PM 59.2667 -66.5333 217° Southwest 480 552 38,000  Level Montreal Center
Mon 12:23:16 PM 59.1667 -66.7000 221° Southwest 480 552 38,000  Level Montreal Center
Mon 12:24:16 PM 59.0667 -66.8833 223° Southwest 480 552 38,000  Level Montreal Center
Mon 12:25:16 PM 58.9667 -67.0500 221° Southwest 480 552 38,000  Level Montreal Center
Mon 12:26:16 PM 58.8500 -67.2000 214° Southwest 480 552 38,000  Level Montreal Center
Mon 12:27:16 PM 58.7667 -67.3500 223° Southwest 480 552 38,000  Level Montreal Center
Mon 12:28:16 PM 58.6333 -67.5500 218° Southwest 480 552 38,000  Level Montreal Center
Mon 12:29:30 PM 58.5333 -67.8000 233° Southwest 480 552 38,000  Level Gander Center
Mon 12:30:16 PM 58.4333 -67.8833 204° Southwest 480 552 38,000  Level Montreal Center
Mon 12:31:16 PM 58.3333 -68.0333 218° Southwest 480 552 38,000  Level Montreal Center
Mon 12:32:16 PM 58.2167 -68.1833 214° Southwest 480 552 38,000  Level Montreal Center
Mon 12:33:16 PM 58.0833 -68.4500 227° Southwest 490 564 38,000  Level Montreal Center
Mon 12:34:39 PM 57.9833 -68.5667 212° Southwest 490 564 38,000  Level Montreal Center
Mon 12:35:39 PM 57.8833 -68.7167 219° Southwest 480 552 38,000  Level Montreal Center
Mon 12:36:39 PM 57.7667 -68.8500 211° Southwest 480 552 38,000  Level Montreal Center
Mon 12:37:39 PM 57.6667 -69.0000 219° Southwest 480 552 38,000  Level Montreal Center
Mon 12:38:39 PM 57.5500 -69.1500 215° Southwest 480 552 38,000  Level Montreal Center
Mon 12:39:39 PM 57.4333 -69.3000 215° Southwest 480 552 38,000  Level Montreal Center
Mon 12:40:39 PM 57.3333 -69.4500 219° Southwest 480 552 38,000  Level Montreal Center
Mon 12:41:39 PM 57.2167 -69.5833 212° Southwest 480 552 38,000  Level Montreal Center
Mon 12:42:39 PM 57.1000 -69.7333 215° Southwest 480 552 38,000  Level Montreal Center
Mon 12:43:39 PM 57.0000 -69.8667 216° Southwest 480 552 38,000  Level Montreal Center
Mon 12:44:39 PM 56.8833 -70.0167 215° Southwest 480 552 38,000  Level Montreal Center
Mon 12:45:39 PM 56.7667 -70.1500 212° Southwest 480 552 38,000  Level Montreal Center
Mon 12:46:39 PM 56.6833 -70.2833 221° Southwest 480 552 38,000  Level Montreal Center
Mon 12:47:39 PM 56.5667 -70.4333 215° Southwest 480 552 38,000  Level Montreal Center
Mon 12:48:39 PM 56.4500 -70.5667 212° Southwest 480 552 38,000  Level Montreal Center
Mon 12:49:39 PM 56.3500 -70.7000 216° Southwest 480 552 38,000  Level Montreal Center
Mon 12:50:39 PM 56.2333 -70.8500 216° Southwest 480 552 38,000  Level Montreal Center
Mon 12:51:39 PM 56.1167 -70.9833 213° Southwest 480 552 38,000  Level Montreal Center
Mon 12:52:39 PM 56.0000 -71.1167 213° Southwest 480 552 38,000  Level Montreal Center
Mon 12:53:39 PM 55.9000 -71.2500 217° Southwest 480 552 38,000  Level Montreal Center
Mon 12:54:39 PM 55.7833 -71.3833 213° Southwest 480 552 38,000  Level Montreal Center
Mon 12:55:39 PM 55.6667 -71.5167 213° Southwest 480 552 38,000  Level Montreal Center
Mon 12:56:39 PM 55.5500 -71.6500 213° Southwest 480 552 38,000  Level Montreal Center
Mon 12:57:39 PM 55.4333 -71.7833 213° Southwest 480 552 38,000  Level Montreal Center
Mon 12:58:39 PM 55.3500 -71.9000 219° Southwest 480 552 38,000  Level Montreal Center
Mon 12:59:39 PM 55.2167 -72.0333 210° Southwest 480 552 38,000  Level Montreal Center
Mon 01:00:39 PM 55.1000 -72.1667 213° Southwest 480 552 38,000  Level Montreal Center
Mon 01:01:39 PM 54.9833 -72.3000 213° Southwest 480 552 38,000  Level Montreal Center
Mon 01:02:39 PM 54.8833 -72.4167 214° Southwest 480 552 38,000  Level Montreal Center
Mon 01:03:39 PM 54.7667 -72.5500 213° Southwest 480 552 38,000  Level Montreal Center
Mon 01:04:39 PM 54.6667 -72.6667 214° Southwest 480 552 38,000  Level Montreal Center
Mon 01:05:39 PM 54.5500 -72.8000 214° Southwest 480 552 38,000  Level Montreal Center
Mon 01:06:39 PM 54.4333 -72.9167 210° Southwest 480 552 38,000  Level Montreal Center
Mon 01:07:39 PM 54.3167 -73.0500 214° Southwest 480 552 38,000  Level Montreal Center
Mon 01:08:39 PM 54.2000 -73.1667 210° Southwest 480 552 38,000  Level Montreal Center
Mon 01:09:39 PM 54.0833 -73.3000 214° Southwest 480 552 38,000  Level Montreal Center
Mon 01:10:39 PM 53.9667 -73.4167 210° Southwest 480 552 38,000  Level Montreal Center
Mon 01:11:39 PM 53.8667 -73.5333 215° Southwest 480 552 38,000  Level Montreal Center
Mon 01:12:39 PM 53.7333 -73.6500 207° Southwest 480 552 38,000  Level Montreal Center
Mon 01:13:39 PM 53.6167 -73.7500 207° Southwest 470 541 38,000  Level Montreal Center
Mon 01:14:39 PM 53.5000 -73.8667 211° Southwest 480 552 38,000  Level Montreal Center
Mon 01:15:39 PM 53.3833 -73.9667 207° Southwest 480 552 38,000  Level Montreal Center
Mon 01:16:39 PM 53.2667 -74.0833 211° Southwest 480 552 38,000  Level Montreal Center
Mon 01:17:39 PM 53.1333 -74.1667 201° Southwest 480 552 38,000  Level Montreal Center
Mon 01:18:40 PM 53.0167 -74.2500 203° Southwest 480 552 38,000  Level Montreal Center
Mon 01:19:40 PM 52.9167 -74.3667 215° Southwest 480 552 38,000  Level Montreal Center
Mon 01:20:40 PM 52.8000 -74.4667 207° Southwest 480 552 38,000  Level Montreal Center
Mon 01:21:40 PM 52.6833 -74.5500 203° Southwest 480 552 38,000  Level Montreal Center
Mon 01:22:40 PM 52.5500 -74.6667 208° Southwest 490 564 38,000  Level Montreal Center
Mon 01:23:40 PM 52.4167 -74.7500 201° Southwest 480 552 38,000  Level Montreal Center
Mon 01:24:40 PM 52.3000 -74.8333 204° Southwest 470 541 38,000  Level Montreal Center
Mon 01:25:40 PM 52.1833 -74.9500 212° Southwest 470 541 38,000  Level Montreal Center
Mon 01:26:40 PM 52.0500 -75.0333 201° Southwest 470 541 38,000  Level Montreal Center
Mon 01:27:40 PM 51.9333 -75.1500 212° Southwest 480 552 38,000  Level Montreal Center
Mon 01:28:40 PM 51.8167 -75.2333 204° Southwest 470 541 38,000  Level Montreal Center
Mon 01:29:40 PM 51.7000 -75.3167 204° Southwest 470 541 38,000  Level Montreal Center
Mon 01:30:40 PM 51.5833 -75.4167 208° Southwest 470 541 38,000  Level Montreal Center
Mon 01:31:40 PM 51.4667 -75.5000 204° Southwest 470 541 38,000  Level Montreal Center
Mon 01:32:40 PM 51.3500 -75.5833 204° Southwest 470 541 38,000  Level Montreal Center
Mon 01:33:40 PM 51.2167 -75.6667 201° Southwest 470 541 38,000  Level Montreal Center
Mon 01:34:40 PM 51.1000 -75.7833 212° Southwest 470 541 38,000  Level Montreal Center
Mon 01:35:40 PM 50.9833 -75.8500 200° South 480 552 38,000  Level Montreal Center
Mon 01:36:40 PM 50.8667 -75.9333 204° Southwest 480 552 38,000  Level Montreal Center
Mon 01:37:40 PM 50.7500 -76.0500 212° Southwest 470 541 38,000  Level Montreal Center
Mon 01:38:40 PM 50.6333 -76.1167 200° South 470 541 38,000  Level Montreal Center
Mon 01:39:40 PM 50.5000 -76.2333 209° Southwest 470 541 38,000  Level Montreal Center
Mon 01:40:40 PM 50.3833 -76.3167 204° Southwest 470 541 38,000  Level Montreal Center
Mon 01:41:40 PM 50.2667 -76.3833 200° South 470 541 38,000  Level Montreal Center
Mon 01:42:40 PM 50.1500 -76.4667 205° Southwest 470 541 38,000  Level Montreal Center
Mon 01:43:40 PM 50.0167 -76.5667 206° Southwest 470 541 38,000  Level Montreal Center
Mon 01:44:40 PM 49.9000 -76.6500 205° Southwest 470 541 38,000  Level Montreal Center
Mon 01:45:40 PM 49.7833 -76.7167 200° South 470 541 38,000  Level Montreal Center
Mon 01:46:40 PM 49.6667 -76.8167 209° Southwest 470 541 38,000  Level Montreal Center
Mon 01:47:40 PM 49.5500 -76.9000 205° Southwest 460 529 38,000  Level Montreal Center
Mon 01:48:40 PM 49.4167 -76.9667 198° South 480 552 38,000  Level Montreal Center
Mon 01:49:40 PM 49.3000 -77.0500 205° Southwest 480 552 38,000  Level Montreal Center
Mon 01:50:40 PM 49.1833 -77.1500 209° Southwest 460 529 38,000  Level Montreal Center
Mon 01:51:40 PM 49.0667 -77.2167 201° Southwest 480 552 38,000  Level Montreal Center
Mon 01:52:40 PM 48.9500 -77.3000 205° Southwest 470 541 38,000  Level Montreal Center
Mon 01:53:40 PM 48.8167 -77.4000 206° Southwest 470 541 38,000  Level Montreal Center
Mon 01:54:40 PM 48.7000 -77.4667 201° Southwest 470 541 38,000  Level Montreal Center
Mon 01:55:40 PM 48.5833 -77.5333 201° Southwest 470 541 38,000  Level Montreal Center
Mon 01:56:40 PM 48.4667 -77.6333 210° Southwest 470 541 38,000  Level Montreal Center
Mon 01:57:40 PM 48.3500 -77.7167 205° Southwest 460 529 38,000  Level Montreal Center
Mon 01:58:40 PM 48.2333 -77.7833 201° Southwest 460 529 38,000  Level Montreal Center
Mon 01:59:40 PM 48.1167 -77.8500 201° Southwest 460 529 38,000  Level Montreal Center
Mon 02:00:40 PM 47.9833 -77.9167 199° South 460 529 38,000  Level Montreal Center
Mon 02:01:40 PM 47.8667 -78.0000 206° Southwest 460 529 38,000  Level Montreal Center
Mon 02:02:40 PM 47.7500 -78.0667 201° Southwest 460 529 38,000  Level Montreal Center
Mon 02:03:40 PM 47.6167 -78.1333 199° South 470 541 38,000  Level Montreal Center
Mon 02:04:40 PM 47.5000 -78.2000 201° Southwest 470 541 38,000  Level Montreal Center
Mon 02:05:40 PM 47.3833 -78.2667 201° Southwest 460 529 38,000  Level Montreal Center
Mon 02:06:40 PM 47.2667 -78.3500 206° Southwest 460 529 38,000  Level Montreal Center
Mon 02:07:40 PM 47.1500 -78.4167 201° Southwest 460 529 38,000  Level Montreal Center
Mon 02:08:40 PM 47.0167 -78.4833 199° South 460 529 38,000  Level Montreal Center
Mon 02:09:40 PM 46.9000 -78.5500 201° Southwest 460 529 38,000  Level Montreal Center
Mon 02:10:40 PM 46.7667 -78.6167 199° South 470 541 38,000  Level Montreal Center
Mon 02:11:28 PM 46.6833 -78.6667 202° Southwest 470 541 38,000  Level Toronto Center
Mon 02:12:28 PM 46.5667 -78.7167 196° South 470 541 38,000  Level Toronto Center
Mon 02:13:28 PM 46.4333 -78.7833 199° South 460 529 38,000  Level Toronto Center
Mon 02:14:28 PM 46.3167 -78.8667 206° Southwest 460 529 38,000  Level Toronto Center
Mon 02:15:28 PM 46.2000 -78.9167 197° South 460 529 38,000  Level Toronto Center
Mon 02:21:31 PM 45.4680 -79.3321 201° Southwest 466 536 38,000  Level FlightAware ADS-B (EPGD / GDN)
Mon 02:22:01 PM 45.4203 -79.3573 201° Southwest 465 535 38,000  Level FlightAware ADS-B (EPGD / GDN)
Mon 02:24:55 PM 45.1036 -79.5237 200° South 463 533 38,000  Level FlightAware ADS-B
Mon 02:25:35 PM 45.0292 -79.5623 201° Southwest 450 518 38,000  Level FlightAware ADS-B
Mon 02:26:35 PM 44.8862 -79.6365 201° Southwest 447 514 38,000  Level FlightAware ADS-B
Mon 02:27:15 PM 44.8118 -79.6750 201° Southwest 447 514 38,000  Level FlightAware ADS-B
Mon 02:28:14 PM 44.6893 -79.7381 201° Southwest 448 516 38,000  Level FlightAware ADS-B
Mon 02:29:01 PM 44.5711 -79.8053 207° Southwest 450 518 38,000  Level FlightAware ADS-B (EPGD / GDN)
Mon 02:29:52 PM 44.4939 -79.8709 214° Southwest 446 513 38,000  Level FlightAware ADS-B (CYKF)
Mon 02:30:42 PM 44.4939 -79.8709 213° Southwest 445 512 38,000  Level FlightAware ADS-B (CYKF)
Mon 02:31:45 PM 44.2841 -80.0615 213° Southwest 443 510 38,000  Level FlightAware ADS-B (CYKF)
Mon 02:32:48 PM 44.1793 -80.1550 213° Southwest 444 511 38,000  Level FlightAware ADS-B (CYKF)
Mon 02:33:45 PM 44.0743 -80.2483 213° Southwest 442 509 38,000  Level FlightAware ADS-B (CYKF)
Mon 02:34:48 PM 43.9869 -80.3256 213° Southwest 439 505 38,000  Level FlightAware ADS-B (CZBA)
Mon 02:35:53 PM 43.8558 -80.4413 213° Southwest 438 504 38,000  Level FlightAware ADS-B (CYKF)
Mon 02:36:25 PM 43.8041 -80.4867 212° Southwest 437 503 38,000  Level FlightAware ADS-B (CZBA)
Mon 02:37:13 PM 43.7201 -80.5603 212° Southwest 433 498 38,000  Level FlightAware ADS-B (CZBA)
Mon 02:37:51 PM 43.6557 -80.6166 212° Southwest 431 496 38,000  Level FlightAware ADS-B (CYKF)
Mon 02:38:51 PM 43.5791 -80.6832 212° Southwest 428 493 38,000  Level FlightAware ADS-B (CYKF)
Mon 02:39:38 PM 43.5149 -80.7390 212° Southwest 428 493 38,000  Level FlightAware ADS-B (CYKF)
Mon 02:40:49 PM 43.3580 -80.8748 212° Southwest 430 495 38,000  Level FlightAware ADS-B (CYKF)
Mon 02:41:49 PM 43.2614 -80.9580 212° Southwest 430 495 38,000  Level FlightAware ADS-B (CYKF)
Mon 02:42:52 PM 43.1543 -81.0495 212° Southwest 429 494 38,000  Level FlightAware ADS-B (CYKF)
Mon 02:43:52 PM 43.0493 -81.1387 211° Southwest 428 493 38,000  Level FlightAware ADS-B (CYKF)
Mon 02:44:50 PM 42.9446 -81.2055 205° Southwest 429 494 38,000  Level FlightAware ADS-B (CYKF)
Mon 02:45:53 PM 42.8334 -81.2755 205° Southwest 427 491 38,000  Level FlightAware ADS-B (CYKF)
Mon 02:46:50 PM 42.7410 -81.3324 204° Southwest 427 491 38,000  Level FlightAware ADS-B (CYKF)
Mon 02:47:42 PM 42.6453 -81.3910 204° Southwest 425 489 38,000  Level FlightAware ADS-B (CYKF)
Mon 02:48:49 PM 42.5415 -81.4544 204° Southwest 424 488 38,000  Level FlightAware ADS-B (CYKF)
Mon 02:49:42 PM 42.5029 -81.4779 204° Southwest 422 486 38,000  Level FlightAware ADS-B (CYKF)
Mon 02:50:28 PM 42.3333 -81.5500 204° Southwest 420 483 38,000  Level Toronto Center
Mon 02:51:07 PM 42.2939 -81.6044 226° Southwest 422 486 38,000  Level Cleveland Center
Mon 02:52:08 PM 42.1675 -81.6794 204° Southwest 422 486 38,000  Level Cleveland Center
Mon 02:53:10 PM 42.0589 -81.7464 205° Southwest 422 486 38,000  Level Cleveland Center
Mon 02:54:12 PM 41.9508 -81.8103 204° Southwest 422 486 38,000  Level Cleveland Center
Mon 02:55:14 PM 41.8436 -81.8747 204° Southwest 422 486 38,000  Level Cleveland Center
Mon 02:56:16 PM 41.7372 -81.9381 204° Southwest 422 486 38,000  Level Cleveland Center
Mon 02:57:18 PM 41.6300 -82.0011 204° Southwest 421 484 38,000  Level Cleveland Center
Mon 02:58:20 PM 41.5047 -82.0758 204° Southwest 421 484 38,000  Level Cleveland Center
Mon 02:59:22 PM 41.3975 -82.1381 204° Southwest 421 484 38,000  Level Cleveland Center
Mon 03:00:24 PM 41.2844 -82.1872 198° South 425 489 38,000  Level Cleveland Center
Mon 03:01:26 PM 41.1708 -82.2297 196° South 426 490 38,000  Level Cleveland Center
Mon 03:02:28 PM 41.0567 -82.2703 195° South 425 489 38,000  Level Cleveland Center
Mon 03:03:30 PM 40.9417 -82.3108 195° South 425 489 38,000  Level Cleveland Center
Mon 03:04:13 PM 40.8456 -82.3453 195° South 425 489 38,000  Level Indianapolis Center
Mon 03:10:01 PM 40.1786 -82.5782 193° South 424 488 38,000  Level FlightAware ADS-B (EGDC)
Mon 03:10:32 PM 40.1188 -82.5895 185° South 431 496 38,000  Level FlightAware ADS-B (EGDC)
Mon 03:11:03 PM 40.0551 -82.5939 183° South 432 497 38,000  Level FlightAware ADS-B (EGDC)
Mon 03:11:33 PM 40.0143 -82.5972 184° South 432 497 38,000  Level FlightAware ADS-B (EGDC)
Mon 03:12:03 PM 39.9497 -82.6021 183° South 433 498 38,000  Level FlightAware ADS-B (EGDC)
Mon 03:12:33 PM 39.8762 -82.6071 183° South 434 499 38,000  Level FlightAware ADS-B (EGDC)
Mon 03:13:05 PM 39.8276 -82.6104 183° South 433 498 38,000  Level FlightAware ADS-B
Mon 03:13:43 PM 39.7436 -82.6161 183° South 430 495 38,000  Level FlightAware ADS-B
Mon 03:14:14 PM 39.6751 -82.6207 183° South 429 494 38,000  Level FlightAware ADS-B
Mon 03:14:45 PM 39.6153 -82.6248 183° South 428 493 38,000  Level FlightAware ADS-B
Mon 03:15:23 PM 39.5392 -82.6299 183° South 427 491 38,000  Level FlightAware ADS-B
Mon 03:15:57 PM 39.4724 -82.6343 183° South 426 490 38,000  Level FlightAware ADS-B
Mon 03:16:30 PM 39.4090 -82.6386 183° South 428 493 38,000  Level FlightAware ADS-B
Mon 03:17:06 PM 39.3398 -82.6432 183° South 428 493 38,000  Level FlightAware ADS-B
Mon 03:17:46 PM 39.2578 -82.6487 183° South 428 493 38,000  Level FlightAware ADS-B
Mon 03:18:31 PM 39.1686 -82.6546 183° South 426 490 38,000  Level FlightAware ADS-B
Mon 03:19:12 PM 39.0875 -82.6599 183° South 423 487 38,000  Level FlightAware ADS-B
Mon 03:19:44 PM 39.0289 -82.6638 183° South 422 486 38,000  Level FlightAware ADS-B
Mon 03:20:15 PM 38.9678 -82.6679 183° South 422 486 38,000  Level FlightAware ADS-B
Mon 03:21:09 PM 38.8667 -82.6746 183° South 420 483 38,000  Level FlightAware ADS-B
Mon 03:21:40 PM 38.8005 -82.6789 183° South 421 484 38,000  Level FlightAware ADS-B
Mon 03:22:18 PM 38.7308 -82.6835 183° South 422 486 38,000  Level FlightAware ADS-B
Mon 03:22:50 PM 38.6643 -82.6878 183° South 421 484 38,000  Level FlightAware ADS-B
Mon 03:23:51 PM 38.5531 -82.6942 183° South 422 486 38,000  Level Indianapolis Center
Mon 03:24:53 PM 38.4347 -82.7025 183° South 422 486 38,000  Level Indianapolis Center
Mon 03:25:55 PM 38.3156 -82.7100 183° South 423 487 38,000  Level Indianapolis Center
Mon 03:26:57 PM 38.1953 -82.7175 183° South 426 490 38,000  Level Indianapolis Center
Mon 03:28:00 PM 38.0750 -82.7267 183° South 429 494 38,000  Level Indianapolis Center
Mon 03:29:02 PM 37.9347 -82.7347 183° South 429 494 38,000  Level Indianapolis Center
Mon 03:30:04 PM 37.8156 -82.7431 183° South 429 494 38,000  Level Indianapolis Center
Mon 03:31:06 PM 37.6983 -82.7578 186° South 428 493 38,000  Level Indianapolis Center
Mon 03:32:08 PM 37.5897 -82.8078 200° South 418 481 38,000  Level Indianapolis Center
Mon 03:33:10 PM 37.4894 -82.8747 208° Southwest 411 473 38,000  Level Indianapolis Center
Mon 03:34:12 PM 37.3722 -82.9522 208° Southwest 411 473 38,000  Level Indianapolis Center
Mon 03:35:14 PM 37.2731 -83.0183 208° Southwest 408 470 38,000  Level Indianapolis Center
Mon 03:36:16 PM 37.1728 -83.0833 207° Southwest 408 470 38,000  Level Indianapolis Center
Mon 03:37:18 PM 37.0750 -83.1475 208° Southwest 404 465 38,000  Level Indianapolis Center
Mon 03:38:20 PM 36.9622 -83.2208 207° Southwest 400 460 38,000  Level Indianapolis Center
Mon 03:39:22 PM 36.8650 -83.2833 207° Southwest 399 459 38,000  Level Indianapolis Center
Mon 03:40:24 PM 36.7681 -83.3458 207° Southwest 397 457 38,000  Level Indianapolis Center
Mon 03:41:26 PM 36.6703 -83.4081 207° Southwest 397 457 38,000  Level Indianapolis Center
Mon 03:42:28 PM 36.5722 -83.4706 207° Southwest 397 457 38,000  Level Indianapolis Center
Mon 03:43:30 PM 36.4617 -83.5408 207° Southwest 396 456 38,000  Level Indianapolis Center
Mon 03:44:33 PM 36.3636 -83.6047 208° Southwest 396 456 38,000  Level Indianapolis Center
Mon 03:45:35 PM 36.2647 -83.6656 206° Southwest 396 456 38,000  Level Indianapolis Center
Mon 03:46:37 PM 36.1669 -83.7292 208° Southwest 396 456 38,000  Level Indianapolis Center
Mon 03:47:10 PM 36.1100 -83.7664 208° Southwest 390 449 38,000  Level Atlanta Center
Mon 03:48:10 PM 36.0039 -83.8333 207° Southwest 390 449 38,000  Level Atlanta Center
Mon 03:49:10 PM 35.9039 -83.8900 205° Southwest 390 449 38,000  Level Atlanta Center
Mon 03:55:01 PM 35.1990 -84.0656 191° South 408 470 38,000  Level FlightAware ADS-B (KDZJ)
Mon 03:55:42 PM 35.1212 -84.0842 191° South 407 468 38,000  Level FlightAware ADS-B (KDZJ)
Mon 03:56:17 PM 35.0590 -84.0991 191° South 407 468 38,000  Level FlightAware ADS-B (KDZJ)
Mon 03:57:02 PM 34.9743 -84.1193 191° South 408 470 38,000  Level FlightAware ADS-B (KDZJ)
Mon 03:57:41 PM 34.9020 -84.1366 191° South 408 470 38,000  Level FlightAware ADS-B (KDZJ)
Mon 03:58:22 PM 34.8274 -84.1543 191° South 408 470 38,000  Level FlightAware ADS-B (KDZJ)
Mon 03:59:02 PM 34.7514 -84.1724 191° South 409 471 38,000  Level FlightAware ADS-B (KDZJ)
Mon 03:59:40 PM 34.6808 -84.1891 191° South 410 472 38,000  Level FlightAware ADS-B (KDZJ)
Mon 04:00:23 PM 34.6022 -84.2077 191° South 407 468 38,000  Level FlightAware ADS-B (KDZJ)
Mon 04:01:02 PM 34.5303 -84.2247 191° South 395 455 38,000  Level FlightAware ADS-B (KDZJ)
Mon 04:01:43 PM 34.4548 -84.2425 191° South 394 453 38,000  Level FlightAware ADS-B (KDZJ)
Mon 04:02:23 PM 34.3825 -84.2595 191° South 393 452 38,000  Level FlightAware ADS-B (KDZJ)
Mon 04:03:03 PM 34.3100 -84.2765 191° South 392 451 38,000  Level FlightAware ADS-B (KDZJ)
Mon 04:03:43 PM 34.2370 -84.2937 191° South 397 457 38,000  Level FlightAware ADS-B (KDZJ)
Mon 04:04:23 PM 34.1654 -84.3105 191° South 397 457 38,000  Level FlightAware ADS-B (KDZJ)
Mon 04:05:03 PM 34.0930 -84.3275 191° South 396 456 38,000  Level FlightAware ADS-B (KDZJ)
Mon 04:05:43 PM 34.0214 -84.3441 191° South 394 453 38,000  Level FlightAware ADS-B (KDZJ)
Mon 04:06:21 PM 33.9535 -84.3600 191° South 393 452 38,000  Level FlightAware ADS-B (KDZJ)
Mon 04:07:10 PM 33.9294 -84.3667 191° South 407 468 38,000 -55 Level Atlanta Center
Mon 04:08:10 PM 33.8208 -84.3914 191° South 401 461 37,900 -400 Descending Atlanta Center
Mon 04:09:10 PM 33.7144 -84.4183 192° South 395 455 37,200 -450 Descending Atlanta Center
Mon 04:10:10 PM 33.5911 -84.4378 187° South 400 460 37,000 -100 Descending Atlanta Center
Mon 04:11:10 PM 33.4742 -84.4347 179° South 420 483 37,000  Level Atlanta Center
Mon 04:12:10 PM 33.3700 -84.4344 180° South 430 495 37,000  Level Atlanta Center
Mon 04:13:10 PM 33.2531 -84.4339 180° South 419 482 37,000  Level Atlanta Center
Mon 04:14:10 PM 33.1403 -84.4308 179° South 414 476 37,000  Level Atlanta Center
Mon 04:15:10 PM 33.0256 -84.4278 179° South 414 476 37,000  Level Atlanta Center
Mon 04:16:10 PM 32.9108 -84.4272 180° South 414 476 37,000  Level Atlanta Center
Mon 04:17:10 PM 32.7981 -84.4244 179° South 414 476 37,000  Level Atlanta Center
Mon 04:18:10 PM 32.6853 -84.4164 177° South 408 470 37,000  Level Atlanta Center
Mon 04:19:10 PM 32.5725 -84.4158 180° South 408 470 37,000  Level Atlanta Center
Mon 04:20:10 PM 32.4578 -84.4131 179° South 408 470 37,000  Level Atlanta Center
Mon 04:21:10 PM 32.3431 -84.4100 179° South 403 464 37,000  Level Atlanta Center
Mon 04:22:10 PM 32.2283 -84.4072 179° South 403 464 37,000  Level Atlanta Center
Mon 04:23:18 PM 32.0886 -84.4056 179° South 415 478 37,000  Level Jacksonville Center
Mon 04:24:18 PM 31.9842 -84.4039 179° South 421 484 37,000  Level Jacksonville Center
Mon 04:25:18 PM 31.8675 -84.3994 178° South 421 484 37,000  Level Jacksonville Center
Mon 04:30:53 PM 31.2063 -84.3866 179° South 412 474 37,000  Level FlightAware ADS-B (KONZ)
Mon 04:31:48 PM 31.1051 -84.3846 179° South 414 476 37,000  Level FlightAware ADS-B (KONZ)
Mon 04:32:51 PM 30.9793 -84.3822 179° South 415 478 37,000  Level FlightAware ADS-B (KONZ)
Mon 04:33:23 PM 30.9182 -84.3811 179° South 416 479 37,000  Level FlightAware ADS-B (KONZ)
Mon 04:34:35 PM 30.7787 -84.3783 179° South 415 478 37,000  Level FlightAware ADS-B (KONZ)
Mon 04:35:09 PM 30.7168 -84.3770 179° South 415 478 37,000  Level FlightAware ADS-B (KONZ)
Mon 04:35:52 PM 30.6292 -84.3690 172° South 431 496 37,000  Level FlightAware ADS-B (KONZ)
Mon 04:36:35 PM 30.5462 -84.3470 162° South 452 520 37,000  Level FlightAware ADS-B (KONZ)
Mon 04:37:21 PM 30.4547 -84.3057 154° Southeast 468 539 37,000  Level FlightAware ADS-B (KONZ)
Mon 04:38:10 PM 30.3638 -84.2475 150° Southeast 474 545 37,000  Level FlightAware ADS-B (KONZ)
Mon 04:39:28 PM 30.2108 -84.1478 151° Southeast 476 548 37,000  Level FlightAware ADS-B (KONZ)
Mon 04:40:25 PM 30.1010 -84.0763 151° Southeast 479 551 37,000  Level FlightAware ADS-B (KONZ)
Mon 04:41:02 PM 30.0444 -84.0395 151° Southeast 480 552 37,000  Level FlightAware ADS-B (KONZ)
Mon 04:41:33 PM 29.9794 -83.9972 151° Southeast 479 551 37,000  Level FlightAware ADS-B (KONZ)
Mon 04:42:17 PM 29.8852 -83.9362 151° Southeast 481 554 37,000  Level FlightAware ADS-B (KONZ)
Mon 04:42:49 PM 29.8364 -83.9039 151° Southeast 477 549 37,000  Level Miami Center
Mon 04:43:51 PM 29.7200 -83.8278 150° Southeast 477 549 37,000  Level Miami Center
Mon 04:44:53 PM 29.6031 -83.7525 151° Southeast 480 552 37,000  Level Miami Center
Mon 04:45:55 PM 29.4844 -83.6775 151° Southeast 485 558 37,000  Level Miami Center
Mon 04:52:09 PM 28.7122 -83.1870 151° Southeast 505 581 37,000  Level FlightAware ADS-B
Mon 04:52:57 PM 28.6320 -83.1365 151° Southeast 506 582 37,000  Level FlightAware ADS-B
Mon 04:56:28 PM 28.1702 -82.8472 151° Southeast 503 579 37,000  Level FlightAware ADS-B
Mon 04:57:48 PM 28.0068 -82.7458 151° Southeast 504 580 37,000  Level FlightAware ADS-B
Mon 04:58:18 PM 27.9465 -82.7082 151° Southeast 505 581 37,000  Level FlightAware ADS-B
Mon 04:59:51 PM 27.7583 -82.5845 149° Southeast 506 582 37,000  Level FlightAware ADS-B
Mon 05:00:40 PM 27.6582 -82.5176 149° Southeast 507 583 37,000  Level FlightAware ADS-B
Mon 05:01:11 PM 27.6095 -82.4854 149° Southeast 507 583 37,000  Level FlightAware ADS-B
Mon 05:01:43 PM 27.5320 -82.4339 149° Southeast 504 580 37,000  Level FlightAware ADS-B
Mon 05:02:13 PM 27.4733 -82.3948 149° Southeast 498 573 37,000  Level FlightAware ADS-B
Mon 05:02:53 PM 27.3941 -82.3422 149° Southeast 479 551 37,000  Level FlightAware ADS-B
Mon 05:04:15 PM 27.2403 -82.2408 150° Southeast 469 540 37,000  Level FlightAware ADS-B
Mon 05:05:55 PM 27.0550 -82.1188 150° Southeast 466 536 37,000  Level FlightAware ADS-B
Mon 05:07:11 PM 26.9137 -82.0261 150° Southeast 459 528 37,000  Level FlightAware ADS-B
Mon 05:08:14 PM 26.7981 -81.9504 150° Southeast 460 529 37,000  Level FlightAware ADS-B
Mon 05:08:55 PM 26.7231 -81.9014 150° Southeast 460 529 37,000  Level FlightAware ADS-B
Mon 05:09:47 PM 26.6260 -81.8381 150° Southeast 460 529 37,000  Level FlightAware ADS-B
Mon 05:10:18 PM 26.5702 -81.8019 150° Southeast 460 529 37,000  Level FlightAware ADS-B
Mon 05:11:00 PM 26.4908 -81.7621 160° South 447 514 37,000  Level FlightAware ADS-B
Mon 05:11:39 PM 26.4327 -81.7402 160° South 448 516 37,000  Level FlightAware ADS-B
Mon 05:12:23 PM 26.3280 -81.6991 161° South 448 516 37,000  Level FlightAware ADS-B
Mon 05:13:03 PM 26.2486 -81.6689 161° South 450 518 37,000  Level FlightAware ADS-B
Mon 05:13:34 PM 26.1992 -81.6503 161° South 452 520 37,000  Level FlightAware ADS-B
Mon 05:14:05 PM 26.1305 -81.6243 161° South 454 522 37,000  Level FlightAware ADS-B
Mon 05:14:59 PM 26.0491 -81.5936 161° South 460 529 37,000  Level FlightAware ADS-B
Mon 05:15:30 PM 25.9535 -81.5576 161° South 462 532 37,000  Level FlightAware ADS-B
Mon 05:16:08 PM 25.8766 -81.5287 161° South 466 536 37,000  Level FlightAware ADS-B
Mon 05:16:38 PM 25.8154 -81.5057 161° South 469 540 37,000  Level FlightAware ADS-B
Mon 05:17:25 PM 25.7218 -81.4706 161° South 473 544 37,000  Level FlightAware ADS-B
Mon 05:17:55 PM 25.6627 -81.4485 161° South 475 547 37,000  Level FlightAware ADS-B
Mon 05:19:00 PM 25.5503 -81.4064 161° South 471 542 37,000  Level Miami Center
Mon 05:20:02 PM 25.3992 -81.3497 161° South 478 550 37,000 -194 Level Miami Center
Mon 05:21:04 PM 25.2728 -81.3036 162° South 479 551 36,600 -629 Descending Miami Center
Mon 05:22:06 PM 25.1467 -81.2564 161° South 479 551 35,700 -968 Descending Miami Center
Mon 05:23:08 PM 25.0203 -81.2083 161° South 481 554 34,600 -976 Descending Miami Center
Mon 05:24:09 PM 24.8903 -81.1619 162° South 488 562 33,700 -1,024 Descending Miami Center
Mon 05:25:11 PM 24.7347 -81.1169 165° South 483 556 32,500 -1,065 Descending Miami Center
Mon 05:26:13 PM 24.6092 -81.1111 178° South 458 527 31,500 -968 Descending Miami Center
Mon 05:27:15 PM 24.4897 -81.1294 188° South 439 505 30,500 -968 Descending Miami Center
Mon 05:28:17 PM 24.3750 -81.1478 188° South 421 484 29,500 -968 Descending Miami Center
Mon 05:29:19 PM 24.2656 -81.1692 190° South 403 464 28,500 -1,016 Descending Miami Center
Mon 05:30:21 PM 24.1589 -81.1864 188° South 388 447 27,400 -1,512 Descending Miami Center
Mon 05:31:22 PM 24.0353 -81.2189 194° South 383 441 25,400 -1,967 Descending Miami Center
Mon 05:33:00 PM 23.8843 -81.3453 225° Southwest  Level FlightAware Approximate
Mon 05:40:00 PM 23.3103 -82.0134 228° Southwest  Level FlightAware Approximate
Mon 05:41:00 PM 23.2292 -82.1095 226° Southwest  Level FlightAware Approximate
Mon 05:42:00 PM 23.1456 -82.2029 212° Southwest  Level FlightAware Approximate
Mon 05:43:00 PM 23.0634 -82.2933 231° Southwest  Level FlightAware Approximate
Mon 05:44:00 PM 22.9801 -82.3866 223° Southwest  Level FlightAware Approximate
Mon 05:45:00 PM 22.9667 -82.4000 223° Southwest  Level FlightAware Approximate
Mon 05:46:00 PM 22.9891 -82.4091 223° Southwest  Level Estimated

Login

Don't have an account? Register now (free) for customized features, flight alerts, and more!